sensor_id;sensor_type;location;lat;lon;timestamp;P1;durP1;ratioP1;P2;durP2;ratioP2
38399;SDS011;24180;42.676;23.320;2022-11-20T00:01:05;4.00;;;2.90;;
38399;SDS011;24180;42.676;23.320;2022-11-20T00:03:34;4.30;;;2.73;;
38399;SDS011;24180;42.676;23.320;2022-11-20T00:06:04;3.57;;;3.27;;
38399;SDS011;24180;42.676;23.320;2022-11-20T00:08:31;5.03;;;3.80;;
38399;SDS011;24180;42.676;23.320;2022-11-20T00:10:57;4.37;;;2.67;;
38399;SDS011;24180;42.676;23.320;2022-11-20T00:13:26;6.73;;;3.53;;
38399;SDS011;24180;42.676;23.320;2022-11-20T00:15:56;5.13;;;4.47;;
38399;SDS011;24180;42.676;23.320;2022-11-20T00:18:22;6.77;;;6.03;;
38399;SDS011;24180;42.676;23.320;2022-11-20T00:20:48;6.00;;;3.90;;
38399;SDS011;24180;42.676;23.320;2022-11-20T00:23:13;6.87;;;3.97;;
38399;SDS011;24180;42.676;23.320;2022-11-20T00:25:38;4.50;;;2.67;;
38399;SDS011;24180;42.676;23.320;2022-11-20T00:28:04;4.87;;;2.47;;
38399;SDS011;24180;42.676;23.320;2022-11-20T00:30:29;2.77;;;2.57;;
38399;SDS011;24180;42.676;23.320;2022-11-20T00:32:56;4.40;;;2.67;;
38399;SDS011;24180;42.676;23.320;2022-11-20T00:35:22;6.20;;;3.03;;
38399;SDS011;24180;42.676;23.320;2022-11-20T00:37:47;4.30;;;4.00;;
38399;SDS011;24180;42.676;23.320;2022-11-20T00:40:12;7.00;;;4.47;;
38399;SDS011;24180;42.676;23.320;2022-11-20T00:42:38;2.73;;;2.53;;
38399;SDS011;24180;42.676;23.320;2022-11-20T00:45:03;3.27;;;2.97;;
38399;SDS011;24180;42.676;23.320;2022-11-20T00:47:29;4.83;;;3.33;;
38399;SDS011;24180;42.676;23.320;2022-11-20T00:49:55;2.30;;;2.20;;
38399;SDS011;24180;42.676;23.320;2022-11-20T00:52:20;4.47;;;2.37;;
38399;SDS011;24180;42.676;23.320;2022-11-20T00:54:46;2.20;;;2.10;;
38399;SDS011;24180;42.676;23.320;2022-11-20T00:57:11;4.23;;;2.27;;
38399;SDS011;24180;42.676;23.320;2022-11-20T00:59:36;2.33;;;2.23;;
38399;SDS011;24180;42.676;23.320;2022-11-20T01:02:02;2.40;;;2.20;;
38399;SDS011;24180;42.676;23.320;2022-11-20T01:04:27;2.20;;;2.10;;
38399;SDS011;24180;42.676;23.320;2022-11-20T01:06:53;2.80;;;2.37;;
38399;SDS011;24180;42.676;23.320;2022-11-20T01:09:18;2.60;;;2.47;;
38399;SDS011;24180;42.676;23.320;2022-11-20T01:11:44;2.77;;;2.30;;
38399;SDS011;24180;42.676;23.320;2022-11-20T01:14:11;3.13;;;2.40;;
38399;SDS011;24180;42.676;23.320;2022-11-20T01:16:40;4.33;;;2.33;;
38399;SDS011;24180;42.676;23.320;2022-11-20T01:19:09;3.37;;;2.47;;
38399;SDS011;24180;42.676;23.320;2022-11-20T01:21:38;2.00;;;1.90;;
38399;SDS011;24180;42.676;23.320;2022-11-20T01:24:05;3.77;;;2.40;;
38399;SDS011;24180;42.676;23.320;2022-11-20T01:26:34;2.60;;;2.40;;
38399;SDS011;24180;42.676;23.320;2022-11-20T01:29:01;2.20;;;2.00;;
38399;SDS011;24180;42.676;23.320;2022-11-20T01:31:35;2.90;;;2.70;;
38399;SDS011;24180;42.676;23.320;2022-11-20T01:34:02;3.83;;;3.07;;
38399;SDS011;24180;42.676;23.320;2022-11-20T01:36:30;2.30;;;2.10;;
38399;SDS011;24180;42.676;23.320;2022-11-20T01:38:58;3.13;;;2.47;;
38399;SDS011;24180;42.676;23.320;2022-11-20T01:41:26;2.70;;;2.50;;
38399;SDS011;24180;42.676;23.320;2022-11-20T01:44:12;3.73;;;2.40;;
38399;SDS011;24180;42.676;23.320;2022-11-20T01:46:40;3.57;;;2.30;;
38399;SDS011;24180;42.676;23.320;2022-11-20T01:49:20;3.13;;;2.40;;
38399;SDS011;24180;42.676;23.320;2022-11-20T01:51:50;2.77;;;2.30;;
38399;SDS011;24180;42.676;23.320;2022-11-20T01:54:23;2.37;;;2.17;;
38399;SDS011;24180;42.676;23.320;2022-11-20T01:56:55;2.50;;;2.30;;
38399;SDS011;24180;42.676;23.320;2022-11-20T01:59:23;2.93;;;2.73;;
38399;SDS011;24180;42.676;23.320;2022-11-20T02:01:51;3.10;;;2.90;;
38399;SDS011;24180;42.676;23.320;2022-11-20T02:04:17;3.50;;;2.10;;
38399;SDS011;24180;42.676;23.320;2022-11-20T02:06:50;2.53;;;2.33;;
38399;SDS011;24180;42.676;23.320;2022-11-20T02:09:20;3.67;;;2.93;;
38399;SDS011;24180;42.676;23.320;2022-11-20T02:11:45;3.30;;;3.00;;
38399;SDS011;24180;42.676;23.320;2022-11-20T02:14:11;4.30;;;2.30;;
38399;SDS011;24180;42.676;23.320;2022-11-20T02:16:37;3.77;;;2.90;;
38399;SDS011;24180;42.676;23.320;2022-11-20T02:19:09;3.70;;;2.97;;
38399;SDS011;24180;42.676;23.320;2022-11-20T02:24:39;3.97;;;3.10;;
38399;SDS011;24180;42.676;23.320;2022-11-20T02:27:07;3.67;;;3.27;;
38399;SDS011;24180;42.676;23.320;2022-11-20T02:29:44;3.20;;;2.90;;
38399;SDS011;24180;42.676;23.320;2022-11-20T02:32:29;2.77;;;2.37;;
38399;SDS011;24180;42.676;23.320;2022-11-20T02:34:56;4.30;;;3.23;;
38399;SDS011;24180;42.676;23.320;2022-11-20T02:37:23;3.97;;;2.60;;
38399;SDS011;24180;42.676;23.320;2022-11-20T02:39:53;2.43;;;2.10;;
38399;SDS011;24180;42.676;23.320;2022-11-20T02:42:18;3.03;;;2.20;;
38399;SDS011;24180;42.676;23.320;2022-11-20T02:44:44;2.30;;;2.10;;
38399;SDS011;24180;42.676;23.320;2022-11-20T02:47:09;3.70;;;2.20;;
38399;SDS011;24180;42.676;23.320;2022-11-20T02:49:35;4.20;;;2.27;;
38399;SDS011;24180;42.676;23.320;2022-11-20T02:52:00;2.57;;;2.20;;
38399;SDS011;24180;42.676;23.320;2022-11-20T02:54:26;2.70;;;2.00;;
38399;SDS011;24180;42.676;23.320;2022-11-20T02:56:52;3.20;;;2.30;;
38399;SDS011;24180;42.676;23.320;2022-11-20T02:59:17;2.80;;;2.60;;
38399;SDS011;24180;42.676;23.320;2022-11-20T03:01:43;3.90;;;3.50;;
38399;SDS011;24180;42.676;23.320;2022-11-20T03:04:09;3.43;;;3.00;;
38399;SDS011;24180;42.676;23.320;2022-11-20T03:06:34;2.50;;;2.40;;
38399;SDS011;24180;42.676;23.320;2022-11-20T03:09:00;5.10;;;3.87;;
38399;SDS011;24180;42.676;23.320;2022-11-20T03:11:25;6.27;;;5.87;;
38399;SDS011;24180;42.676;23.320;2022-11-20T03:13:51;8.20;;;7.67;;
38399;SDS011;24180;42.676;23.320;2022-11-20T03:16:18;9.40;;;8.80;;
38399;SDS011;24180;42.676;23.320;2022-11-20T03:18:45;16.10;;;15.30;;
38399;SDS011;24180;42.676;23.320;2022-11-20T03:21:12;9.40;;;8.80;;
38399;SDS011;24180;42.676;23.320;2022-11-20T03:23:39;10.40;;;9.77;;
38399;SDS011;24180;42.676;23.320;2022-11-20T03:26:09;12.63;;;11.83;;
38399;SDS011;24180;42.676;23.320;2022-11-20T03:28:56;12.90;;;11.77;;
38399;SDS011;24180;42.676;23.320;2022-11-20T03:31:27;8.70;;;8.10;;
38399;SDS011;24180;42.676;23.320;2022-11-20T03:33:55;5.00;;;3.70;;
38399;SDS011;24180;42.676;23.320;2022-11-20T03:36:23;5.40;;;5.00;;
38399;SDS011;24180;42.676;23.320;2022-11-20T03:38:49;2.80;;;2.60;;
38399;SDS011;24180;42.676;23.320;2022-11-20T03:41:22;3.40;;;2.80;;
38399;SDS011;24180;42.676;23.320;2022-11-20T03:43:49;3.53;;;3.17;;
38399;SDS011;24180;42.676;23.320;2022-11-20T03:46:16;3.53;;;3.20;;
38399;SDS011;24180;42.676;23.320;2022-11-20T03:48:41;3.80;;;2.60;;
38399;SDS011;24180;42.676;23.320;2022-11-20T03:53:36;3.87;;;2.13;;
38399;SDS011;24180;42.676;23.320;2022-11-20T03:56:02;4.13;;;2.60;;
38399;SDS011;24180;42.676;23.320;2022-11-20T03:58:28;5.33;;;2.57;;
38399;SDS011;24180;42.676;23.320;2022-11-20T04:00:54;2.67;;;2.47;;
38399;SDS011;24180;42.676;23.320;2022-11-20T04:03:19;6.40;;;2.67;;
38399;SDS011;24180;42.676;23.320;2022-11-20T04:05:45;3.30;;;2.27;;
38399;SDS011;24180;42.676;23.320;2022-11-20T04:08:10;2.30;;;2.10;;
38399;SDS011;24180;42.676;23.320;2022-11-20T04:10:36;4.67;;;3.30;;
38399;SDS011;24180;42.676;23.320;2022-11-20T04:13:01;2.63;;;2.30;;
38399;SDS011;24180;42.676;23.320;2022-11-20T04:15:27;2.67;;;2.47;;
38399;SDS011;24180;42.676;23.320;2022-11-20T04:17:53;2.50;;;2.10;;
38399;SDS011;24180;42.676;23.320;2022-11-20T04:20:19;3.33;;;2.47;;
38399;SDS011;24180;42.676;23.320;2022-11-20T04:22:45;2.93;;;2.50;;
38399;SDS011;24180;42.676;23.320;2022-11-20T04:25:11;3.87;;;2.43;;
38399;SDS011;24180;42.676;23.320;2022-11-20T04:27:36;2.60;;;2.40;;
38399;SDS011;24180;42.676;23.320;2022-11-20T04:30:02;3.23;;;2.40;;
38399;SDS011;24180;42.676;23.320;2022-11-20T04:32:28;3.13;;;2.27;;
38399;SDS011;24180;42.676;23.320;2022-11-20T04:34:53;2.10;;;2.00;;
38399;SDS011;24180;42.676;23.320;2022-11-20T04:37:18;2.00;;;1.90;;
38399;SDS011;24180;42.676;23.320;2022-11-20T04:39:44;2.50;;;2.30;;
38399;SDS011;24180;42.676;23.320;2022-11-20T04:42:09;2.50;;;2.30;;
38399;SDS011;24180;42.676;23.320;2022-11-20T04:44:54;3.57;;;2.30;;
38399;SDS011;24180;42.676;23.320;2022-11-20T04:47:20;2.70;;;2.50;;
38399;SDS011;24180;42.676;23.320;2022-11-20T04:49:46;2.63;;;2.43;;
38399;SDS011;24180;42.676;23.320;2022-11-20T04:52:11;3.07;;;2.30;;
38399;SDS011;24180;42.676;23.320;2022-11-20T04:54:36;3.13;;;2.03;;
38399;SDS011;24180;42.676;23.320;2022-11-20T04:57:02;2.47;;;2.33;;
38399;SDS011;24180;42.676;23.320;2022-11-20T04:59:27;2.50;;;2.30;;
38399;SDS011;24180;42.676;23.320;2022-11-20T05:01:53;2.63;;;2.50;;
38399;SDS011;24180;42.676;23.320;2022-11-20T05:04:18;3.00;;;2.60;;
38399;SDS011;24180;42.676;23.320;2022-11-20T05:06:43;2.50;;;2.30;;
38399;SDS011;24180;42.676;23.320;2022-11-20T05:09:10;2.20;;;2.00;;
38399;SDS011;24180;42.676;23.320;2022-11-20T05:11:36;2.03;;;1.90;;
38399;SDS011;24180;42.676;23.320;2022-11-20T05:14:02;2.77;;;2.30;;
38399;SDS011;24180;42.676;23.320;2022-11-20T05:16:27;5.10;;;2.63;;
38399;SDS011;24180;42.676;23.320;2022-11-20T05:18:53;3.07;;;2.60;;
38399;SDS011;24180;42.676;23.320;2022-11-20T05:21:19;2.40;;;2.30;;
38399;SDS011;24180;42.676;23.320;2022-11-20T05:23:45;3.27;;;2.97;;
38399;SDS011;24180;42.676;23.320;2022-11-20T05:26:20;3.73;;;2.80;;
38399;SDS011;24180;42.676;23.320;2022-11-20T05:28:47;2.93;;;2.53;;
38399;SDS011;24180;42.676;23.320;2022-11-20T05:31:14;6.20;;;2.60;;
38399;SDS011;24180;42.676;23.320;2022-11-20T05:33:41;2.80;;;2.57;;
38399;SDS011;24180;42.676;23.320;2022-11-20T05:36:08;3.90;;;3.20;;
38399;SDS011;24180;42.676;23.320;2022-11-20T05:38:34;3.03;;;2.60;;
38399;SDS011;24180;42.676;23.320;2022-11-20T05:41:07;4.83;;;3.20;;
38399;SDS011;24180;42.676;23.320;2022-11-20T05:43:44;3.27;;;3.00;;
38399;SDS011;24180;42.676;23.320;2022-11-20T05:46:12;3.03;;;2.70;;
38399;SDS011;24180;42.676;23.320;2022-11-20T05:48:39;2.67;;;2.47;;
38399;SDS011;24180;42.676;23.320;2022-11-20T05:51:07;45.23;;;5.07;;
38399;SDS011;24180;42.676;23.320;2022-11-20T05:53:35;5.10;;;2.50;;
38399;SDS011;24180;42.676;23.320;2022-11-20T05:56:08;3.13;;;2.73;;
38399;SDS011;24180;42.676;23.320;2022-11-20T05:58:37;5.10;;;2.87;;
38399;SDS011;24180;42.676;23.320;2022-11-20T06:01:36;4.87;;;4.27;;
38399;SDS011;24180;42.676;23.320;2022-11-20T06:03:54;3.83;;;3.40;;
38399;SDS011;24180;42.676;23.320;2022-11-20T06:06:21;8.50;;;3.50;;
38399;SDS011;24180;42.676;23.320;2022-11-20T06:08:47;3.33;;;3.13;;
38399;SDS011;24180;42.676;23.320;2022-11-20T06:11:15;5.97;;;3.30;;
38399;SDS011;24180;42.676;23.320;2022-11-20T06:13:43;5.30;;;3.00;;
38399;SDS011;24180;42.676;23.320;2022-11-20T06:16:10;3.90;;;3.10;;
38399;SDS011;24180;42.676;23.320;2022-11-20T06:21:31;5.07;;;2.77;;
38399;SDS011;24180;42.676;23.320;2022-11-20T06:23:57;6.57;;;3.67;;
38399;SDS011;24180;42.676;23.320;2022-11-20T06:26:25;4.03;;;3.53;;
38399;SDS011;24180;42.676;23.320;2022-11-20T06:28:55;3.20;;;2.70;;
38399;SDS011;24180;42.676;23.320;2022-11-20T06:31:23;3.60;;;2.80;;
38399;SDS011;24180;42.676;23.320;2022-11-20T06:33:53;4.17;;;2.90;;
38399;SDS011;24180;42.676;23.320;2022-11-20T06:36:19;4.27;;;3.03;;
38399;SDS011;24180;42.676;23.320;2022-11-20T06:38:48;3.87;;;2.43;;
38399;SDS011;24180;42.676;23.320;2022-11-20T06:41:16;3.73;;;2.70;;
38399;SDS011;24180;42.676;23.320;2022-11-20T06:43:44;3.43;;;2.67;;
38399;SDS011;24180;42.676;23.320;2022-11-20T06:46:11;6.37;;;2.90;;
38399;SDS011;24180;42.676;23.320;2022-11-20T06:48:39;4.23;;;2.93;;
38399;SDS011;24180;42.676;23.320;2022-11-20T06:51:06;3.23;;;2.40;;
38399;SDS011;24180;42.676;23.320;2022-11-20T06:53:33;2.90;;;2.60;;
38399;SDS011;24180;42.676;23.320;2022-11-20T06:56:00;4.00;;;2.80;;
38399;SDS011;24180;42.676;23.320;2022-11-20T06:58:27;4.83;;;3.03;;
38399;SDS011;24180;42.676;23.320;2022-11-20T07:01:00;6.33;;;3.37;;
38399;SDS011;24180;42.676;23.320;2022-11-20T07:03:31;3.67;;;3.30;;
38399;SDS011;24180;42.676;23.320;2022-11-20T07:05:58;4.13;;;3.23;;
38399;SDS011;24180;42.676;23.320;2022-11-20T07:08:26;4.87;;;3.47;;
38399;SDS011;24180;42.676;23.320;2022-11-20T07:10:56;4.30;;;3.90;;
38399;SDS011;24180;42.676;23.320;2022-11-20T07:13:23;5.40;;;3.37;;
38399;SDS011;24180;42.676;23.320;2022-11-20T07:15:49;3.90;;;3.50;;
38399;SDS011;24180;42.676;23.320;2022-11-20T07:18:14;4.33;;;3.23;;
38399;SDS011;24180;42.676;23.320;2022-11-20T07:20:40;4.50;;;3.00;;
38399;SDS011;24180;42.676;23.320;2022-11-20T07:23:06;4.37;;;2.43;;
38399;SDS011;24180;42.676;23.320;2022-11-20T07:25:33;4.43;;;3.03;;
38399;SDS011;24180;42.676;23.320;2022-11-20T07:28:00;4.70;;;3.60;;
38399;SDS011;24180;42.676;23.320;2022-11-20T07:30:26;4.77;;;3.03;;
38399;SDS011;24180;42.676;23.320;2022-11-20T07:33:04;3.30;;;3.10;;
38399;SDS011;24180;42.676;23.320;2022-11-20T07:35:29;5.53;;;2.93;;
38399;SDS011;24180;42.676;23.320;2022-11-20T07:37:56;3.43;;;2.87;;
38399;SDS011;24180;42.676;23.320;2022-11-20T07:40:22;4.80;;;2.90;;
38399;SDS011;24180;42.676;23.320;2022-11-20T07:42:48;5.17;;;3.37;;
38399;SDS011;24180;42.676;23.320;2022-11-20T07:45:17;3.60;;;3.00;;
38399;SDS011;24180;42.676;23.320;2022-11-20T07:47:43;6.43;;;4.20;;
38399;SDS011;24180;42.676;23.320;2022-11-20T07:50:14;8.43;;;7.53;;
38399;SDS011;24180;42.676;23.320;2022-11-20T07:52:40;13.03;;;12.03;;
38399;SDS011;24180;42.676;23.320;2022-11-20T07:55:06;13.03;;;11.67;;
38399;SDS011;24180;42.676;23.320;2022-11-20T07:57:32;9.00;;;8.17;;
38399;SDS011;24180;42.676;23.320;2022-11-20T08:00:03;7.10;;;6.67;;
38399;SDS011;24180;42.676;23.320;2022-11-20T08:02:39;5.73;;;5.13;;
38399;SDS011;24180;42.676;23.320;2022-11-20T08:05:05;7.90;;;7.20;;
38399;SDS011;24180;42.676;23.320;2022-11-20T08:07:38;6.20;;;5.77;;
38399;SDS011;24180;42.676;23.320;2022-11-20T08:10:04;7.67;;;5.47;;
38399;SDS011;24180;42.676;23.320;2022-11-20T08:12:31;8.53;;;7.83;;
38399;SDS011;24180;42.676;23.320;2022-11-20T08:15:15;6.60;;;6.10;;
38399;SDS011;24180;42.676;23.320;2022-11-20T08:17:41;5.57;;;4.17;;
38399;SDS011;24180;42.676;23.320;2022-11-20T08:20:08;4.73;;;3.60;;
38399;SDS011;24180;42.676;23.320;2022-11-20T08:22:35;4.80;;;3.50;;
38399;SDS011;24180;42.676;23.320;2022-11-20T08:25:00;4.50;;;3.67;;
38399;SDS011;24180;42.676;23.320;2022-11-20T08:27:26;6.27;;;4.20;;
38399;SDS011;24180;42.676;23.320;2022-11-20T08:29:51;5.93;;;3.30;;
38399;SDS011;24180;42.676;23.320;2022-11-20T08:32:17;5.30;;;3.83;;
38399;SDS011;24180;42.676;23.320;2022-11-20T08:34:44;10.20;;;3.93;;
38399;SDS011;24180;42.676;23.320;2022-11-20T08:37:16;7.30;;;4.00;;
38399;SDS011;24180;42.676;23.320;2022-11-20T08:39:42;6.57;;;4.10;;
38399;SDS011;24180;42.676;23.320;2022-11-20T08:42:07;4.37;;;3.20;;
38399;SDS011;24180;42.676;23.320;2022-11-20T08:44:33;5.20;;;3.20;;
38399;SDS011;24180;42.676;23.320;2022-11-20T08:46:59;6.87;;;3.10;;
38399;SDS011;24180;42.676;23.320;2022-11-20T08:49:25;5.90;;;4.10;;
38399;SDS011;24180;42.676;23.320;2022-11-20T08:51:50;4.53;;;3.43;;
38399;SDS011;24180;42.676;23.320;2022-11-20T08:54:19;4.27;;;3.73;;
38399;SDS011;24180;42.676;23.320;2022-11-20T08:56:48;11.90;;;11.13;;
38399;SDS011;24180;42.676;23.320;2022-11-20T08:59:13;11.50;;;10.70;;
38399;SDS011;24180;42.676;23.320;2022-11-20T09:01:43;6.27;;;5.20;;
38399;SDS011;24180;42.676;23.320;2022-11-20T09:04:09;6.37;;;3.77;;
38399;SDS011;24180;42.676;23.320;2022-11-20T09:06:34;6.67;;;6.03;;
38399;SDS011;24180;42.676;23.320;2022-11-20T09:09:00;5.77;;;4.40;;
38399;SDS011;24180;42.676;23.320;2022-11-20T09:11:25;7.70;;;4.73;;
38399;SDS011;24180;42.676;23.320;2022-11-20T09:13:50;14.37;;;9.20;;
38399;SDS011;24180;42.676;23.320;2022-11-20T09:16:16;6.57;;;5.97;;
38399;SDS011;24180;42.676;23.320;2022-11-20T09:18:41;9.97;;;4.33;;
38399;SDS011;24180;42.676;23.320;2022-11-20T09:21:11;5.53;;;4.87;;
38399;SDS011;24180;42.676;23.320;2022-11-20T09:23:38;4.03;;;3.67;;
38399;SDS011;24180;42.676;23.320;2022-11-20T09:26:13;4.83;;;3.87;;
38399;SDS011;24180;42.676;23.320;2022-11-20T09:28:40;5.20;;;3.10;;
38399;SDS011;24180;42.676;23.320;2022-11-20T09:31:06;3.43;;;3.20;;
38399;SDS011;24180;42.676;23.320;2022-11-20T09:33:42;3.67;;;3.07;;
38399;SDS011;24180;42.676;23.320;2022-11-20T09:36:08;2.60;;;2.40;;
38399;SDS011;24180;42.676;23.320;2022-11-20T09:38:33;2.90;;;2.70;;
38399;SDS011;24180;42.676;23.320;2022-11-20T09:41:02;3.50;;;2.83;;
38399;SDS011;24180;42.676;23.320;2022-11-20T09:51:58;4.07;;;3.67;;
38399;SDS011;24180;42.676;23.320;2022-11-20T09:54:46;2.93;;;2.70;;
38399;SDS011;24180;42.676;23.320;2022-11-20T09:57:13;4.00;;;3.70;;
38399;SDS011;24180;42.676;23.320;2022-11-20T09:59:43;3.90;;;3.40;;
38399;SDS011;24180;42.676;23.320;2022-11-20T10:05:11;8.60;;;7.80;;
38399;SDS011;24180;42.676;23.320;2022-11-20T10:07:56;7.00;;;4.22;;
38399;SDS011;24180;42.676;23.320;2022-11-20T10:13:17;5.97;;;4.50;;
38399;SDS011;24180;42.676;23.320;2022-11-20T10:16:08;6.25;;;4.22;;
38399;SDS011;24180;42.676;23.320;2022-11-20T10:29:20;13.85;;;7.65;;
38399;SDS011;24180;42.676;23.320;2022-11-20T10:31:54;7.85;;;5.05;;
38399;SDS011;24180;42.676;23.320;2022-11-20T10:37:21;10.88;;;8.73;;
38399;SDS011;24180;42.676;23.320;2022-11-20T10:42:45;8.95;;;5.07;;
38399;SDS011;24180;42.676;23.320;2022-11-20T10:45:28;8.32;;;5.57;;
38399;SDS011;24180;42.676;23.320;2022-11-20T10:50:40;12.17;;;10.00;;
38399;SDS011;24180;42.676;23.320;2022-11-20T10:56:50;6.30;;;5.17;;
38399;SDS011;24180;42.676;23.320;2022-11-20T11:01:48;9.77;;;6.33;;
38399;SDS011;24180;42.676;23.320;2022-11-20T11:07:16;14.47;;;6.10;;
38399;SDS011;24180;42.676;23.320;2022-11-20T11:09:55;5.17;;;4.00;;
38399;SDS011;24180;42.676;23.320;2022-11-20T11:12:22;5.60;;;3.60;;
38399;SDS011;24180;42.676;23.320;2022-11-20T11:14:50;2.53;;;2.43;;
38399;SDS011;24180;42.676;23.320;2022-11-20T11:17:21;1.77;;;1.73;;
38399;SDS011;24180;42.676;23.320;2022-11-20T11:22:50;1.60;;;1.60;;
38399;SDS011;24180;42.676;23.320;2022-11-20T11:25:29;1.50;;;1.50;;
38399;SDS011;24180;42.676;23.320;2022-11-20T11:27:59;3.00;;;2.80;;
38399;SDS011;24180;42.676;23.320;2022-11-20T11:30:28;1.70;;;1.70;;
38399;SDS011;24180;42.676;23.320;2022-11-20T11:33:02;1.40;;;1.40;;
38399;SDS011;24180;42.676;23.320;2022-11-20T11:35:30;1.50;;;1.50;;
38399;SDS011;24180;42.676;23.320;2022-11-20T11:38:05;1.50;;;1.50;;
38399;SDS011;24180;42.676;23.320;2022-11-20T11:40:39;1.60;;;1.60;;
38399;SDS011;24180;42.676;23.320;2022-11-20T11:43:06;1.70;;;1.70;;
38399;SDS011;24180;42.676;23.320;2022-11-20T11:46:01;1.57;;;1.57;;
38399;SDS011;24180;42.676;23.320;2022-11-20T11:48:27;1.60;;;1.60;;
38399;SDS011;24180;42.676;23.320;2022-11-20T11:50:52;1.60;;;1.60;;
38399;SDS011;24180;42.676;23.320;2022-11-20T11:53:21;1.70;;;1.70;;
38399;SDS011;24180;42.676;23.320;2022-11-20T11:56:09;1.50;;;1.50;;
38399;SDS011;24180;42.676;23.320;2022-11-20T11:58:45;1.60;;;1.60;;
38399;SDS011;24180;42.676;23.320;2022-11-20T12:04:36;1.50;;;1.50;;
38399;SDS011;24180;42.676;23.320;2022-11-20T12:07:13;1.50;;;1.50;;
38399;SDS011;24180;42.676;23.320;2022-11-20T12:09:47;1.60;;;1.60;;
38399;SDS011;24180;42.676;23.320;2022-11-20T12:12:18;1.50;;;1.50;;
38399;SDS011;24180;42.676;23.320;2022-11-20T12:14:47;1.60;;;1.60;;
38399;SDS011;24180;42.676;23.320;2022-11-20T12:17:15;1.70;;;1.70;;
38399;SDS011;24180;42.676;23.320;2022-11-20T12:19:44;1.40;;;1.40;;
38399;SDS011;24180;42.676;23.320;2022-11-20T12:30:00;6.93;;;2.73;;
38399;SDS011;24180;42.676;23.320;2022-11-20T12:43:29;4.43;;;2.33;;
38399;SDS011;24180;42.676;23.320;2022-11-20T12:46:33;4.00;;;2.50;;
38399;SDS011;24180;42.676;23.320;2022-11-20T12:49:30;4.30;;;2.53;;
38399;SDS011;24180;42.676;23.320;2022-11-20T12:58:12;4.47;;;3.00;;
38399;SDS011;24180;42.676;23.320;2022-11-20T13:00:46;7.30;;;3.50;;
38399;SDS011;24180;42.676;23.320;2022-11-20T13:08:37;8.47;;;5.47;;
38399;SDS011;24180;42.676;23.320;2022-11-20T13:11:16;17.77;;;16.07;;
38399;SDS011;24180;42.676;23.320;2022-11-20T13:19:15;6.67;;;4.63;;
38399;SDS011;24180;42.676;23.320;2022-11-20T13:21:43;7.43;;;4.83;;
38399;SDS011;24180;42.676;23.320;2022-11-20T13:29:26;5.90;;;4.40;;
38399;SDS011;24180;42.676;23.320;2022-11-20T13:32:00;10.63;;;5.30;;
38399;SDS011;24180;42.676;23.320;2022-11-20T13:34:28;6.77;;;4.73;;
38399;SDS011;24180;42.676;23.320;2022-11-20T13:36:56;8.43;;;5.83;;
38399;SDS011;24180;42.676;23.320;2022-11-20T13:42:01;7.57;;;5.40;;
38399;SDS011;24180;42.676;23.320;2022-11-20T13:44:50;7.27;;;5.70;;
38399;SDS011;24180;42.676;23.320;2022-11-20T13:47:28;9.63;;;5.20;;
38399;SDS011;24180;42.676;23.320;2022-11-20T13:49:55;10.03;;;6.30;;
38399;SDS011;24180;42.676;23.320;2022-11-20T14:00:24;8.43;;;5.90;;
38399;SDS011;24180;42.676;23.320;2022-11-20T14:05:38;9.90;;;6.53;;
38399;SDS011;24180;42.676;23.320;2022-11-20T14:08:06;8.77;;;5.20;;
38399;SDS011;24180;42.676;23.320;2022-11-20T14:10:39;9.17;;;5.60;;
38399;SDS011;24180;42.676;23.320;2022-11-20T14:13:20;7.97;;;5.20;;
38399;SDS011;24180;42.676;23.320;2022-11-20T14:15:45;7.90;;;5.53;;
38399;SDS011;24180;42.676;23.320;2022-11-20T14:18:15;9.20;;;5.60;;
38399;SDS011;24180;42.676;23.320;2022-11-20T14:20:46;7.87;;;6.10;;
38399;SDS011;24180;42.676;23.320;2022-11-20T14:23:12;14.50;;;7.70;;
38399;SDS011;24180;42.676;23.320;2022-11-20T14:25:41;17.97;;;10.60;;
38399;SDS011;24180;42.676;23.320;2022-11-20T14:28:11;15.93;;;9.30;;
38399;SDS011;24180;42.676;23.320;2022-11-20T14:30:56;11.97;;;9.73;;
38399;SDS011;24180;42.676;23.320;2022-11-20T14:33:23;9.47;;;8.13;;
38399;SDS011;24180;42.676;23.320;2022-11-20T14:35:52;16.03;;;11.27;;
38399;SDS011;24180;42.676;23.320;2022-11-20T14:38:21;14.33;;;10.03;;
38399;SDS011;24180;42.676;23.320;2022-11-20T14:40:50;8.97;;;6.80;;
38399;SDS011;24180;42.676;23.320;2022-11-20T14:45:42;11.90;;;8.80;;
38399;SDS011;24180;42.676;23.320;2022-11-20T14:48:08;7.87;;;4.37;;
38399;SDS011;24180;42.676;23.320;2022-11-20T14:50:37;6.40;;;4.30;;
38399;SDS011;24180;42.676;23.320;2022-11-20T14:53:03;4.43;;;4.03;;
38399;SDS011;24180;42.676;23.320;2022-11-20T14:58:41;5.37;;;3.90;;
38399;SDS011;24180;42.676;23.320;2022-11-20T15:01:00;6.43;;;3.97;;
38399;SDS011;24180;42.676;23.320;2022-11-20T15:03:36;4.13;;;3.33;;
38399;SDS011;24180;42.676;23.320;2022-11-20T15:06:04;7.40;;;4.60;;
38399;SDS011;24180;42.676;23.320;2022-11-20T15:08:31;5.27;;;3.97;;
38399;SDS011;24180;42.676;23.320;2022-11-20T15:10:57;4.53;;;3.70;;
38399;SDS011;24180;42.676;23.320;2022-11-20T15:13:30;5.77;;;3.97;;
38399;SDS011;24180;42.676;23.320;2022-11-20T15:16:01;4.50;;;3.60;;
38399;SDS011;24180;42.676;23.320;2022-11-20T15:21:07;4.50;;;4.10;;
38399;SDS011;24180;42.676;23.320;2022-11-20T15:23:48;5.13;;;4.23;;
38399;SDS011;24180;42.676;23.320;2022-11-20T15:26:23;11.53;;;7.97;;
38399;SDS011;24180;42.676;23.320;2022-11-20T15:28:51;5.63;;;4.90;;
38399;SDS011;24180;42.676;23.320;2022-11-20T15:31:21;8.33;;;6.97;;
38399;SDS011;24180;42.676;23.320;2022-11-20T15:33:48;4.40;;;4.07;;
38399;SDS011;24180;42.676;23.320;2022-11-20T15:36:14;5.13;;;4.63;;
38399;SDS011;24180;42.676;23.320;2022-11-20T15:38:40;10.50;;;8.33;;
38399;SDS011;24180;42.676;23.320;2022-11-20T15:41:05;6.37;;;4.60;;
38399;SDS011;24180;42.676;23.320;2022-11-20T15:43:31;4.90;;;3.70;;
38399;SDS011;24180;42.676;23.320;2022-11-20T15:45:58;6.13;;;4.53;;
38399;SDS011;24180;42.676;23.320;2022-11-20T15:48:28;3.57;;;3.23;;
38399;SDS011;24180;42.676;23.320;2022-11-20T15:51:01;4.77;;;3.30;;
38399;SDS011;24180;42.676;23.320;2022-11-20T15:53:32;5.13;;;3.70;;
38399;SDS011;24180;42.676;23.320;2022-11-20T15:55:57;5.83;;;4.37;;
38399;SDS011;24180;42.676;23.320;2022-11-20T15:58:23;7.93;;;4.10;;
38399;SDS011;24180;42.676;23.320;2022-11-20T16:00:49;4.07;;;3.53;;
38399;SDS011;24180;42.676;23.320;2022-11-20T16:03:16;5.03;;;4.07;;
38399;SDS011;24180;42.676;23.320;2022-11-20T16:05:42;5.40;;;4.00;;
38399;SDS011;24180;42.676;23.320;2022-11-20T16:08:08;5.03;;;3.40;;
38399;SDS011;24180;42.676;23.320;2022-11-20T16:10:34;4.17;;;3.77;;
38399;SDS011;24180;42.676;23.320;2022-11-20T16:13:00;5.07;;;3.67;;
38399;SDS011;24180;42.676;23.320;2022-11-20T16:15:45;4.30;;;3.00;;
38399;SDS011;24180;42.676;23.320;2022-11-20T16:18:18;3.67;;;3.30;;
38399;SDS011;24180;42.676;23.320;2022-11-20T16:20:46;3.70;;;3.23;;
38399;SDS011;24180;42.676;23.320;2022-11-20T16:23:19;9.00;;;6.37;;
38399;SDS011;24180;42.676;23.320;2022-11-20T16:25:45;5.13;;;3.30;;
38399;SDS011;24180;42.676;23.320;2022-11-20T16:28:11;4.03;;;3.17;;
38399;SDS011;24180;42.676;23.320;2022-11-20T16:30:37;6.83;;;3.50;;
38399;SDS011;24180;42.676;23.320;2022-11-20T16:33:03;6.23;;;3.47;;
38399;SDS011;24180;42.676;23.320;2022-11-20T16:35:30;3.27;;;2.93;;
38399;SDS011;24180;42.676;23.320;2022-11-20T16:37:56;4.00;;;2.93;;
38399;SDS011;24180;42.676;23.320;2022-11-20T16:40:23;3.90;;;3.53;;
38399;SDS011;24180;42.676;23.320;2022-11-20T16:42:50;3.93;;;3.50;;